Time;durP1;ratioP1;P1;durP2;ratioP2;P2;SDS_P1;SDS_P2;PMS_P1;PMS_P2;Temp;Humidity;BMP_temperature;BMP_pressure;BME280_temperature;BME280_humidity;BME280_pressure;Samples;Min_cycle;Max_cycle;Signal;HPM_P1;HPM_P2
2023/09/13 00:01:50;;;;;;;80.15;29.67;;;;;;;;;;5073200;28;20512;-85
2023/09/13 00:04:15;;;;;;;80.03;31.70;;;;;;;;;;5068123;28;20043;-85
2023/09/13 00:06:40;;;;;;;91.75;34.65;;;;;;;;;;5062603;28;20027;-86
2023/09/13 00:09:09;;;;;;;89.28;31.23;;;;;;;;;;5062227;28;20028;-86
2023/09/13 00:11:37;;;;;;;92.30;33.22;;;;;;;;;;5066262;28;20028;-86
2023/09/13 00:14:02;;;;;;;92.47;33.95;;;;;;;;;;5064258;28;20043;-86
2023/09/13 00:16:28;;;;;;;81.90;30.17;;;;;;;;;;5068268;28;20388;-86
2023/09/13 00:18:54;;;;;;;99.47;35.30;;;;;;;;;;5071357;28;20135;-86
2023/09/13 00:21:20;;;;;;;81.28;29.50;;;;;;;;;;5062556;28;20128;-86
2023/09/13 00:23:46;;;;;;;87.45;30.95;;;;;;;;;;5067056;28;20112;-87
2023/09/13 00:26:12;;;;;;;92.20;33.67;;;;;;;;;;5066356;28;20449;-86
2023/09/13 00:28:37;;;;;;;97.65;36.05;;;;;;;;;;5067562;28;20112;-87
2023/09/13 00:31:02;;;;;;;102.78;32.80;;;;;;;;;;5063691;28;20036;-86
2023/09/13 00:33:29;;;;;;;96.68;34.70;;;;;;;;;;5065637;28;20062;-86
2023/09/13 00:35:57;;;;;;;104.03;34.22;;;;;;;;;;5063901;28;20017;-85
2023/09/13 00:38:23;;;;;;;100.97;34.90;;;;;;;;;;5070555;28;20110;-86
2023/09/13 00:40:48;;;;;;;96.00;33.78;;;;;;;;;;5066543;28;20032;-86
2023/09/13 00:43:13;;;;;;;101.40;34.20;;;;;;;;;;5070517;28;20016;-85
2023/09/13 00:45:39;;;;;;;92.57;33.15;;;;;;;;;;5069446;28;20017;-86
2023/09/13 00:48:04;;;;;;;91.95;33.15;;;;;;;;;;5052345;28;20025;-86
2023/09/13 00:50:30;;;;;;;91.63;34.38;;;;;;;;;;5063894;28;20019;-86
2023/09/13 00:52:56;;;;;;;96.72;35.00;;;;;;;;;;5059103;28;20104;-86
2023/09/13 00:55:22;;;;;;;95.95;36.58;;;;;;;;;;5067189;28;20161;-86
2023/09/13 00:57:49;;;;;;;89.63;32.60;;;;;;;;;;5070804;28;20020;-86
2023/09/13 01:00:14;;;;;;;98.28;34.15;;;;;;;;;;5067740;28;20436;-86
2023/09/13 01:02:40;;;;;;;93.57;33.38;;;;;;;;;;5069309;28;20027;-86
2023/09/13 01:05:10;;;;;;;94.40;32.67;;;;;;;;;;5071811;28;20099;-86
2023/09/13 01:07:37;;;;;;;90.57;32.08;;;;;;;;;;5064416;28;20104;-86
2023/09/13 01:10:03;;;;;;;93.78;33.63;;;;;;;;;;5058300;28;20017;-86
2023/09/13 01:12:29;;;;;;;92.18;31.75;;;;;;;;;;5065151;28;20044;-86
2023/09/13 01:14:54;;;;;;;91.97;31.67;;;;;;;;;;5057501;28;20027;-86
2023/09/13 01:17:22;;;;;;;88.85;30.83;;;;;;;;;;5060953;28;20048;-86
2023/09/13 01:19:53;;;;;;;90.40;30.30;;;;;;;;;;5069471;28;20050;-86
2023/09/13 01:22:21;;;;;;;79.80;28.38;;;;;;;;;;5070230;28;20562;-87
2023/09/13 01:25:01;;;;;;;86.30;29.33;;;;;;;;;;5053007;28;20036;-87
2023/09/13 01:27:34;;;;;;;76.72;26.45;;;;;;;;;;5069914;28;20111;-86
2023/09/13 01:30:00;;;;;;;69.00;27.30;;;;;;;;;;5070888;28;20087;-86
2023/09/13 01:32:25;;;;;;;66.10;24.60;;;;;;;;;;5067156;28;20024;-86
2023/09/13 01:34:57;;;;;;;63.30;24.83;;;;;;;;;;5066080;28;20377;-86
2023/09/13 01:37:22;;;;;;;61.22;25.85;;;;;;;;;;5066685;28;20024;-87
2023/09/13 01:39:47;;;;;;;71.60;24.38;;;;;;;;;;5066666;28;20105;-87
2023/09/13 01:42:13;;;;;;;66.75;24.80;;;;;;;;;;5069257;28;20036;-86
2023/09/13 01:44:40;;;;;;;61.42;22.98;;;;;;;;;;5069400;28;20024;-87
2023/09/13 01:47:06;;;;;;;56.70;22.42;;;;;;;;;;5061696;28;20107;-86
2023/09/13 01:49:32;;;;;;;58.92;22.27;;;;;;;;;;5059168;28;20017;-87
2023/09/13 01:52:00;;;;;;;56.03;20.98;;;;;;;;;;5065264;28;20117;-86
2023/09/13 01:54:25;;;;;;;61.05;23.23;;;;;;;;;;5060622;28;20353;-86
2023/09/13 01:56:50;;;;;;;51.72;21.67;;;;;;;;;;5059418;28;20024;-86
2023/09/13 01:59:16;;;;;;;55.05;21.27;;;;;;;;;;5069197;28;20169;-87
2023/09/13 02:01:41;;;;;;;58.13;23.10;;;;;;;;;;5068798;28;20070;-86
2023/09/13 02:04:07;;;;;;;54.78;20.73;;;;;;;;;;5068609;28;20087;-86
2023/09/13 02:06:32;;;;;;;60.08;22.17;;;;;;;;;;5060708;28;20030;-86
2023/09/13 02:08:57;;;;;;;66.68;24.58;;;;;;;;;;5065526;28;20017;-86
2023/09/13 02:11:24;;;;;;;61.15;23.17;;;;;;;;;;5069455;28;20027;-86
2023/09/13 02:13:50;;;;;;;58.95;23.05;;;;;;;;;;5063456;28;20028;-86
2023/09/13 02:16:20;;;;;;;66.60;25.10;;;;;;;;;;5053700;28;20024;-87
2023/09/13 02:18:45;;;;;;;62.33;25.50;;;;;;;;;;5058047;28;20044;-87
2023/09/13 02:21:10;;;;;;;59.53;22.48;;;;;;;;;;5057513;28;20068;-87
2023/09/13 02:23:36;;;;;;;71.57;25.50;;;;;;;;;;5061776;28;20050;-86
2023/09/13 02:26:01;;;;;;;65.15;25.27;;;;;;;;;;5067425;28;20016;-86
2023/09/13 02:28:26;;;;;;;65.75;24.48;;;;;;;;;;5054045;28;20354;-87
2023/09/13 02:30:51;;;;;;;66.53;25.30;;;;;;;;;;5067777;28;20476;-87
2023/09/13 02:33:17;;;;;;;67.00;26.20;;;;;;;;;;5060300;28;20094;-87
2023/09/13 02:35:45;;;;;;;63.55;25.38;;;;;;;;;;5059063;28;20395;-86
2023/09/13 02:38:10;;;;;;;69.25;25.73;;;;;;;;;;5066373;28;20083;-87
2023/09/13 02:40:36;;;;;;;63.20;23.60;;;;;;;;;;5063602;28;20025;-87
2023/09/13 02:43:02;;;;;;;68.13;25.55;;;;;;;;;;5066658;28;20495;-86
2023/09/13 02:45:30;;;;;;;59.72;22.70;;;;;;;;;;5069947;28;20126;-87
2023/09/13 02:47:55;;;;;;;65.45;24.60;;;;;;;;;;5060534;28;20333;-86
2023/09/13 02:50:21;;;;;;;55.45;23.02;;;;;;;;;;5055129;28;20055;-87
2023/09/13 02:52:48;;;;;;;63.25;24.60;;;;;;;;;;5074087;28;20425;-87
2023/09/13 02:55:14;;;;;;;60.00;23.48;;;;;;;;;;5059459;28;20020;-87
2023/09/13 02:57:39;;;;;;;61.22;23.00;;;;;;;;;;5070936;28;20025;-86
2023/09/13 03:00:05;;;;;;;66.55;23.48;;;;;;;;;;5072141;28;20048;-87
2023/09/13 03:02:31;;;;;;;62.63;22.80;;;;;;;;;;5064328;28;20025;-86
2023/09/13 03:04:56;;;;;;;58.42;22.83;;;;;;;;;;5072550;28;20024;-86
2023/09/13 03:07:21;;;;;;;62.33;23.40;;;;;;;;;;5056526;28;20012;-87
2023/09/13 03:09:52;;;;;;;59.53;22.92;;;;;;;;;;5064693;28;20017;-86
2023/09/13 03:12:17;;;;;;;56.47;22.75;;;;;;;;;;5067010;28;20459;-86
2023/09/13 03:14:42;;;;;;;60.58;23.45;;;;;;;;;;5070772;28;20035;-87
2023/09/13 03:17:11;;;;;;;60.33;22.13;;;;;;;;;;5064446;28;20052;-87
2023/09/13 03:19:39;;;;;;;62.95;22.65;;;;;;;;;;5060976;28;20025;-86
2023/09/13 03:22:05;;;;;;;60.95;23.30;;;;;;;;;;5070134;28;20028;-86
2023/09/13 03:24:30;;;;;;;63.30;22.77;;;;;;;;;;5054738;28;20017;-87
2023/09/13 03:26:55;;;;;;;60.10;22.98;;;;;;;;;;5064670;28;20145;-87
2023/09/13 03:29:21;;;;;;;60.38;22.15;;;;;;;;;;5072940;28;20020;-85
2023/09/13 03:31:46;;;;;;;60.78;23.90;;;;;;;;;;5064112;28;20024;-87
2023/09/13 03:34:14;;;;;;;60.25;22.98;;;;;;;;;;5072852;28;20028;-86
2023/09/13 03:36:40;;;;;;;60.63;23.58;;;;;;;;;;5069688;28;20027;-87
2023/09/13 03:39:05;;;;;;;69.45;23.90;;;;;;;;;;5058916;28;20032;-86
2023/09/13 03:41:31;;;;;;;74.47;26.13;;;;;;;;;;5062401;28;20039;-87
2023/09/13 03:43:56;;;;;;;68.05;25.23;;;;;;;;;;5058242;28;20017;-87
2023/09/13 03:46:24;;;;;;;70.50;23.60;;;;;;;;;;5072417;28;20066;-87
2023/09/13 03:48:49;;;;;;;65.78;22.42;;;;;;;;;;5071251;28;20103;-87
2023/09/13 03:51:15;;;;;;;66.20;24.17;;;;;;;;;;5063022;28;20063;-87
2023/09/13 03:53:40;;;;;;;68.55;23.48;;;;;;;;;;5071831;28;20028;-86
2023/09/13 03:56:08;;;;;;;67.93;24.38;;;;;;;;;;5070846;28;20020;-83
2023/09/13 03:58:34;;;;;;;67.32;23.50;;;;;;;;;;5063391;28;20029;-84
2023/09/13 04:00:59;;;;;;;64.38;23.35;;;;;;;;;;5061923;28;20074;-83
2023/09/13 04:03:25;;;;;;;61.53;23.27;;;;;;;;;;5066653;28;20023;-84
2023/09/13 04:05:51;;;;;;;62.63;22.15;;;;;;;;;;5066196;28;20348;-84
2023/09/13 04:08:16;;;;;;;56.55;21.38;;;;;;;;;;5073674;28;20372;-84
2023/09/13 04:10:42;;;;;;;60.95;23.05;;;;;;;;;;5064357;28;20161;-83
2023/09/13 04:13:07;;;;;;;56.22;22.55;;;;;;;;;;5064463;28;20052;-83
2023/09/13 04:15:33;;;;;;;61.35;22.13;;;;;;;;;;5073309;28;20039;-84
2023/09/13 04:17:58;;;;;;;54.30;22.42;;;;;;;;;;5067169;28;20108;-83
2023/09/13 04:20:23;;;;;;;58.53;23.08;;;;;;;;;;5072455;28;20085;-84
2023/09/13 04:22:49;;;;;;;58.72;20.85;;;;;;;;;;5070316;28;20036;-84
2023/09/13 04:25:14;;;;;;;55.03;21.77;;;;;;;;;;5072375;28;20057;-83
2023/09/13 04:27:43;;;;;;;59.15;21.80;;;;;;;;;;5070949;28;20043;-83
2023/09/13 04:30:09;;;;;;;52.95;21.13;;;;;;;;;;5062107;28;20128;-83
2023/09/13 04:32:34;;;;;;;53.13;20.75;;;;;;;;;;5059349;28;20029;-83
2023/09/13 04:35:02;;;;;;;61.50;21.98;;;;;;;;;;5070957;28;20027;-82
2023/09/13 04:37:28;;;;;;;54.65;20.67;;;;;;;;;;5068327;28;20039;-84
2023/09/13 04:39:53;;;;;;;55.30;20.35;;;;;;;;;;5062780;28;20029;-83
2023/09/13 04:42:18;;;;;;;55.03;21.85;;;;;;;;;;5066532;28;20452;-83
2023/09/13 04:44:44;;;;;;;49.80;19.58;;;;;;;;;;5064607;28;20016;-83
2023/09/13 04:47:09;;;;;;;51.20;19.98;;;;;;;;;;5063340;28;20017;-83
2023/09/13 04:49:36;;;;;;;58.35;22.40;;;;;;;;;;5064078;28;20324;-83
2023/09/13 04:52:02;;;;;;;54.92;21.42;;;;;;;;;;5062580;28;20017;-83
2023/09/13 04:54:31;;;;;;;56.90;21.20;;;;;;;;;;5069234;28;20458;-83
2023/09/13 04:56:56;;;;;;;59.15;22.65;;;;;;;;;;5065331;28;20021;-83
2023/09/13 04:59:24;;;;;;;55.10;19.92;;;;;;;;;;5053281;28;20031;-82
2023/09/13 05:01:49;;;;;;;63.55;22.35;;;;;;;;;;5070812;28;20388;-84
2023/09/13 05:04:17;;;;;;;60.30;21.42;;;;;;;;;;5060565;28;20025;-84
2023/09/13 05:06:42;;;;;;;55.35;21.13;;;;;;;;;;5062968;28;20027;-83
2023/09/13 05:09:07;;;;;;;56.58;21.92;;;;;;;;;;5069668;28;20016;-83
2023/09/13 05:11:32;;;;;;;58.88;21.15;;;;;;;;;;5069435;28;20032;-83
2023/09/13 05:14:08;;;;;;;60.72;20.77;;;;;;;;;;5065448;28;20086;-82
2023/09/13 05:16:33;;;;;;;63.40;20.67;;;;;;;;;;5063364;28;20077;-84
2023/09/13 05:18:58;;;;;;;61.22;22.10;;;;;;;;;;5070030;28;20743;-83
2023/09/13 05:21:24;;;;;;;58.22;21.83;;;;;;;;;;5059705;28;20522;-83
2023/09/13 05:23:49;;;;;;;55.05;21.70;;;;;;;;;;5064098;28;20151;-83
2023/09/13 05:26:14;;;;;;;59.67;22.35;;;;;;;;;;5070457;28;20052;-83
2023/09/13 05:28:40;;;;;;;62.63;21.73;;;;;;;;;;5071537;28;20013;-83
2023/09/13 05:31:06;;;;;;;58.42;21.42;;;;;;;;;;5063066;28;20032;-82
2023/09/13 05:33:31;;;;;;;60.85;20.85;;;;;;;;;;5062781;28;20048;-83
2023/09/13 05:35:56;;;;;;;49.20;20.00;;;;;;;;;;5064859;28;20024;-84
2023/09/13 05:38:22;;;;;;;63.72;21.70;;;;;;;;;;5063784;28;20086;-83
2023/09/13 05:40:47;;;;;;;52.15;20.65;;;;;;;;;;5066949;28;20461;-83
2023/09/13 05:43:13;;;;;;;61.70;21.10;;;;;;;;;;5065720;28;20034;-82
2023/09/13 05:45:42;;;;;;;58.72;19.98;;;;;;;;;;5063725;28;20480;-84
2023/09/13 05:48:08;;;;;;;56.30;20.20;;;;;;;;;;5071525;28;20024;-83
2023/09/13 05:50:33;;;;;;;53.17;21.63;;;;;;;;;;5062849;28;20029;-83
2023/09/13 05:52:59;;;;;;;60.03;22.20;;;;;;;;;;5069345;28;20123;-83
2023/09/13 05:55:24;;;;;;;57.80;21.33;;;;;;;;;;5056392;28;20036;-83
2023/09/13 05:57:51;;;;;;;56.38;20.70;;;;;;;;;;5067347;28;20028;-82
2023/09/13 06:00:17;;;;;;;60.28;21.60;;;;;;;;;;5065547;28;20096;-83
2023/09/13 06:02:42;;;;;;;61.08;21.85;;;;;;;;;;5053734;28;20179;-83
2023/09/13 06:05:09;;;;;;;57.08;20.67;;;;;;;;;;5064107;28;20023;-83
2023/09/13 06:07:39;;;;;;;52.92;20.88;;;;;;;;;;5068226;28;20020;-82
2023/09/13 06:10:07;;;;;;;61.78;20.60;;;;;;;;;;5053678;28;20043;-83
2023/09/13 06:12:32;;;;;;;53.08;20.45;;;;;;;;;;5094613;28;20039;-84
2023/09/13 06:15:01;;;;;;;56.65;20.75;;;;;;;;;;5060701;28;20025;-84
2023/09/13 06:17:26;;;;;;;55.75;20.70;;;;;;;;;;5054525;28;20060;-83
2023/09/13 06:19:52;;;;;;;64.22;21.02;;;;;;;;;;5066176;28;20020;-84
2023/09/13 06:22:17;;;;;;;51.65;18.95;;;;;;;;;;5059482;28;20036;-83
2023/09/13 06:24:43;;;;;;;53.45;19.95;;;;;;;;;;5092613;28;20090;-83
2023/09/13 06:27:08;;;;;;;61.15;21.77;;;;;;;;;;5067221;28;20025;-83
2023/09/13 06:29:33;;;;;;;53.03;19.90;;;;;;;;;;5064923;28;20095;-84
2023/09/13 06:31:59;;;;;;;52.13;19.15;;;;;;;;;;5054746;28;20024;-85
2023/09/13 06:34:27;;;;;;;51.63;18.77;;;;;;;;;;5059028;28;20491;-83
2023/09/13 06:36:54;;;;;;;55.30;19.95;;;;;;;;;;5063603;28;20769;-83
2023/09/13 06:39:19;;;;;;;50.42;19.73;;;;;;;;;;5058778;28;20024;-83
2023/09/13 06:41:44;;;;;;;58.25;18.83;;;;;;;;;;5058584;28;20021;-83
2023/09/13 06:44:09;;;;;;;50.35;19.25;;;;;;;;;;5062923;28;20024;-83
2023/09/13 06:46:38;;;;;;;48.10;18.35;;;;;;;;;;5072585;28;20032;-84
2023/09/13 06:49:04;;;;;;;49.20;19.73;;;;;;;;;;5071847;28;20029;-85
2023/09/13 06:51:30;;;;;;;53.80;19.35;;;;;;;;;;5070875;28;20035;-84
2023/09/13 06:53:55;;;;;;;48.22;17.10;;;;;;;;;;5071216;28;20020;-84
2023/09/13 06:56:20;;;;;;;49.35;19.05;;;;;;;;;;5072607;28;20098;-84
2023/09/13 06:58:46;;;;;;;53.50;19.05;;;;;;;;;;5064964;28;20051;-84
2023/09/13 07:01:12;;;;;;;51.38;18.92;;;;;;;;;;5062766;28;20169;-84
2023/09/13 07:03:37;;;;;;;46.42;17.13;;;;;;;;;;5060894;28;20036;-84
2023/09/13 07:06:03;;;;;;;44.83;16.75;;;;;;;;;;5071321;28;20021;-84
2023/09/13 07:08:28;;;;;;;48.72;17.35;;;;;;;;;;5064062;28;20017;-84
2023/09/13 07:10:53;;;;;;;50.97;18.85;;;;;;;;;;5065225;28;20017;-84
2023/09/13 07:13:19;;;;;;;45.10;17.60;;;;;;;;;;5058002;28;20017;-84
2023/09/13 07:15:44;;;;;;;45.13;18.27;;;;;;;;;;5066940;28;20025;-84
2023/09/13 07:18:09;;;;;;;48.88;18.35;;;;;;;;;;5054663;28;20430;-84
2023/09/13 07:20:35;;;;;;;46.42;17.38;;;;;;;;;;5069745;28;20031;-84
2023/09/13 07:23:01;;;;;;;44.38;18.15;;;;;;;;;;5066258;28;20040;-83
2023/09/13 07:25:26;;;;;;;41.97;18.77;;;;;;;;;;5070911;28;20044;-84
2023/09/13 07:27:51;;;;;;;40.80;15.98;;;;;;;;;;5071999;28;20021;-84
2023/09/13 07:30:16;;;;;;;42.13;17.85;;;;;;;;;;5067934;28;20026;-84
2023/09/13 07:32:42;;;;;;;48.78;18.75;;;;;;;;;;5067048;28;20440;-84
2023/09/13 07:35:07;;;;;;;46.88;18.55;;;;;;;;;;5060085;28;20032;-83
2023/09/13 07:37:33;;;;;;;44.83;18.67;;;;;;;;;;5059025;28;20025;-84
2023/09/13 07:39:58;;;;;;;43.70;16.67;;;;;;;;;;5058377;28;20017;-84
2023/09/13 07:42:23;;;;;;;42.88;17.55;;;;;;;;;;5064655;28;20083;-82
2023/09/13 07:44:49;;;;;;;49.70;17.80;;;;;;;;;;5077311;28;20030;-84
2023/09/13 07:47:14;;;;;;;39.97;16.42;;;;;;;;;;5079001;28;20024;-83
2023/09/13 07:49:39;;;;;;;43.85;17.42;;;;;;;;;;5083670;28;20467;-84
2023/09/13 07:52:05;;;;;;;43.92;17.02;;;;;;;;;;5073554;28;20021;-83
2023/09/13 07:54:36;;;;;;;39.47;16.02;;;;;;;;;;5072201;28;20023;-83
2023/09/13 07:57:02;;;;;;;37.85;13.35;;;;;;;;;;5073371;28;20333;-83
2023/09/13 07:59:29;;;;;;;51.15;17.20;;;;;;;;;;5083489;28;20037;-83
2023/09/13 08:01:54;;;;;;;37.25;13.98;;;;;;;;;;5064031;28;20013;-83
2023/09/13 08:04:20;;;;;;;39.28;15.68;;;;;;;;;;5060276;28;20043;-83
2023/09/13 08:06:45;;;;;;;36.42;15.52;;;;;;;;;;5066587;28;20021;-82
2023/09/13 08:09:14;;;;;;;41.28;14.95;;;;;;;;;;5065017;28;20021;-83
2023/09/13 08:11:39;;;;;;;29.70;13.13;;;;;;;;;;5077961;28;20062;-84
2023/09/13 08:14:05;;;;;;;37.28;13.35;;;;;;;;;;5072660;28;20549;-84
2023/09/13 08:16:30;;;;;;;30.60;12.35;;;;;;;;;;5069532;28;20112;-84
2023/09/13 08:18:55;;;;;;;33.83;13.05;;;;;;;;;;5074949;28;20107;-84
2023/09/13 08:21:24;;;;;;;30.52;11.63;;;;;;;;;;5067807;28;20380;-84
2023/09/13 08:23:49;;;;;;;24.00;11.30;;;;;;;;;;5072772;28;20088;-84
2023/09/13 08:26:16;;;;;;;31.63;11.10;;;;;;;;;;5072191;28;20093;-84
2023/09/13 08:28:41;;;;;;;28.75;11.30;;;;;;;;;;5073241;28;20427;-83
2023/09/13 08:31:07;;;;;;;33.28;12.70;;;;;;;;;;5073185;28;20020;-83
2023/09/13 08:33:32;;;;;;;25.58;11.77;;;;;;;;;;5074721;28;20522;-84
2023/09/13 08:35:57;;;;;;;27.88;11.55;;;;;;;;;;5072263;28;20024;-84
2023/09/13 08:38:23;;;;;;;26.88;11.50;;;;;;;;;;5059850;28;20040;-82
2023/09/13 08:40:50;;;;;;;25.42;10.93;;;;;;;;;;5057747;28;20099;-83
2023/09/13 08:43:17;;;;;;;24.92;10.90;;;;;;;;;;5084732;28;20379;-82
2023/09/13 08:45:42;;;;;;;26.25;12.18;;;;;;;;;;5066528;28;20108;-84
2023/09/13 08:48:09;;;;;;;24.70;10.63;;;;;;;;;;5073611;28;20052;-84
2023/09/13 08:50:36;;;;;;;26.02;10.27;;;;;;;;;;5084244;28;20043;-84
2023/09/13 08:53:02;;;;;;;26.33;10.60;;;;;;;;;;5058207;28;20024;-84
2023/09/13 08:55:28;;;;;;;26.80;11.98;;;;;;;;;;5067441;28;20075;-84
2023/09/13 08:57:54;;;;;;;20.77;10.10;;;;;;;;;;5072309;28;20020;-83
2023/09/13 09:00:20;;;;;;;23.42;11.32;;;;;;;;;;5072374;28;20128;-83
2023/09/13 09:02:47;;;;;;;20.05;11.15;;;;;;;;;;5075360;28;20029;-83
2023/09/13 09:05:15;;;;;;;21.45;8.43;;;;;;;;;;5065581;28;20312;-83
2023/09/13 09:07:42;;;;;;;21.38;9.68;;;;;;;;;;5071525;28;20451;-84
2023/09/13 09:10:11;;;;;;;14.68;7.25;;;;;;;;;;5074960;28;20475;-84
2023/09/13 09:12:38;;;;;;;14.25;7.20;;;;;;;;;;5068144;28;20051;-84
2023/09/13 09:15:07;;;;;;;15.90;6.30;;;;;;;;;;5081641;28;20020;-84
2023/09/13 09:17:33;;;;;;;12.30;5.57;;;;;;;;;;5068611;28;20082;-84
2023/09/13 09:20:01;;;;;;;7.72;4.38;;;;;;;;;;5059666;28;20028;-85
2023/09/13 09:22:27;;;;;;;10.13;4.78;;;;;;;;;;5061455;28;20020;-83
2023/09/13 09:24:52;;;;;;;12.40;4.78;;;;;;;;;;5060983;28;20040;-86
2023/09/13 09:27:17;;;;;;;8.63;4.65;;;;;;;;;;5061244;28;20092;-86
2023/09/13 09:29:45;;;;;;;8.23;4.50;;;;;;;;;;5069801;28;20091;-85
2023/09/13 09:32:12;;;;;;;7.97;3.88;;;;;;;;;;5068673;28;20440;-85
2023/09/13 09:34:41;;;;;;;6.72;3.78;;;;;;;;;;5070999;28;20032;-87
2023/09/13 09:37:10;;;;;;;9.00;3.88;;;;;;;;;;5072263;28;20025;-86
2023/09/13 09:39:40;;;;;;;8.70;3.83;;;;;;;;;;5073196;28;20489;-86
2023/09/13 09:42:05;;;;;;;6.43;3.33;;;;;;;;;;5071127;28;20031;-86
2023/09/13 09:44:31;;;;;;;6.78;2.90;;;;;;;;;;5092877;28;20103;-86
2023/09/13 09:46:59;;;;;;;9.73;3.25;;;;;;;;;;5101864;28;20020;-86
2023/09/13 09:49:25;;;;;;;6.15;3.17;;;;;;;;;;5067500;28;20066;-85
2023/09/13 09:51:51;;;;;;;8.45;3.08;;;;;;;;;;5079993;28;20012;-85
2023/09/13 09:54:16;;;;;;;6.18;3.30;;;;;;;;;;5072701;28;20411;-85
2023/09/13 09:56:42;;;;;;;8.93;3.03;;;;;;;;;;5061183;28;20082;-86
2023/09/13 09:59:08;;;;;;;5.22;2.40;;;;;;;;;;5065879;28;20052;-85
2023/09/13 10:01:37;;;;;;;9.68;2.08;;;;;;;;;;5073100;28;20048;-85
2023/09/13 10:04:11;;;;;;;4.07;2.00;;;;;;;;;;5069599;28;20021;-85
2023/09/13 10:06:37;;;;;;;4.20;2.00;;;;;;;;;;5061052;28;20038;-85
2023/09/13 10:09:04;;;;;;;5.18;1.95;;;;;;;;;;5079781;28;20610;-86
2023/09/13 10:11:29;;;;;;;3.38;1.60;;;;;;;;;;5070997;28;20025;-86
2023/09/13 10:13:54;;;;;;;3.05;1.90;;;;;;;;;;5066884;28;20475;-86
2023/09/13 10:16:23;;;;;;;5.57;1.63;;;;;;;;;;5067643;28;20093;-85
2023/09/13 10:18:51;;;;;;;3.33;1.30;;;;;;;;;;5071300;28;20016;-85
2023/09/13 10:21:26;;;;;;;4.22;1.73;;;;;;;;;;5070656;28;20029;-85
2023/09/13 10:24:01;;;;;;;2.55;1.70;;;;;;;;;;5072250;28;20020;-86
2023/09/13 10:26:29;;;;;;;4.60;1.80;;;;;;;;;;5071631;28;20494;-85
2023/09/13 10:28:55;;;;;;;3.28;1.70;;;;;;;;;;5071550;28;20008;-86
2023/09/13 10:31:26;;;;;;;3.30;1.52;;;;;;;;;;5069162;28;20024;-85
2023/09/13 10:33:52;;;;;;;11.40;2.45;;;;;;;;;;5057969;28;20029;-86
2023/09/13 10:36:26;;;;;;;1.85;1.40;;;;;;;;;;5062836;28;20032;-84
2023/09/13 10:39:07;;;;;;;2.42;1.70;;;;;;;;;;5073300;28;20045;-85
2023/09/13 10:41:34;;;;;;;3.07;1.90;;;;;;;;;;5064291;28;20058;-85
2023/09/13 10:44:03;;;;;;;2.15;1.70;;;;;;;;;;5072588;28;20024;-84
2023/09/13 10:46:30;;;;;;;3.47;1.75;;;;;;;;;;5062714;28;20016;-85
2023/09/13 10:48:55;;;;;;;3.67;1.55;;;;;;;;;;5067833;28;20017;-86
2023/09/13 10:51:21;;;;;;;4.53;1.83;;;;;;;;;;5067786;28;20024;-85
2023/09/13 10:53:47;;;;;;;3.03;1.50;;;;;;;;;;5071790;28;20028;-85
2023/09/13 10:56:14;;;;;;;2.25;1.55;;;;;;;;;;5070757;28;20517;-85
2023/09/13 10:58:41;;;;;;;8.30;2.05;;;;;;;;;;5067108;28;20531;-84
2023/09/13 11:01:06;;;;;;;4.20;2.00;;;;;;;;;;5064599;28;20039;-85
2023/09/13 11:03:35;;;;;;;2.40;1.60;;;;;;;;;;5066721;28;20697;-85
2023/09/13 11:06:00;;;;;;;4.38;1.77;;;;;;;;;;5059655;28;20017;-85
2023/09/13 11:08:30;;;;;;;2.42;1.52;;;;;;;;;;5071395;28;20028;-86
2023/09/13 11:10:55;;;;;;;3.88;1.77;;;;;;;;;;5075589;28;20017;-84
2023/09/13 11:13:33;;;;;;;4.15;2.05;;;;;;;;;;5066306;28;20090;-86
2023/09/13 11:16:01;;;;;;;2.97;1.95;;;;;;;;;;5078033;28;20020;-85
2023/09/13 11:18:27;;;;;;;3.60;2.05;;;;;;;;;;5069721;28;20013;-85
2023/09/13 11:20:53;;;;;;;2.92;1.83;;;;;;;;;;5065632;28;20032;-85
2023/09/13 11:23:19;;;;;;;7.35;1.90;;;;;;;;;;5074162;28;20127;-86
2023/09/13 11:25:48;;;;;;;3.03;1.80;;;;;;;;;;5066878;28;20421;-88
2023/09/13 11:28:32;;;;;;;3.33;1.90;;;;;;;;;;5076134;28;20024;-86
2023/09/13 11:30:59;;;;;;;3.13;2.00;;;;;;;;;;5075200;28;20024;-88
2023/09/13 11:33:30;;;;;;;2.58;1.60;;;;;;;;;;5056221;28;20380;-88
2023/09/13 11:35:57;;;;;;;3.55;1.92;;;;;;;;;;5070664;28;20032;-88
2023/09/13 11:38:23;;;;;;;2.58;1.80;;;;;;;;;;5061756;28;20141;-89
2023/09/13 11:40:49;;;;;;;2.05;1.45;;;;;;;;;;5075596;28;20456;-88
2023/09/13 11:43:24;;;;;;;6.95;2.20;;;;;;;;;;5065758;28;20108;-88
2023/09/13 11:45:50;;;;;;;2.35;1.45;;;;;;;;;;5070313;28;20352;-88
2023/09/13 11:48:19;;;;;;;2.97;1.40;;;;;;;;;;5071429;28;20021;-88
2023/09/13 11:50:47;;;;;;;7.65;1.58;;;;;;;;;;5073413;28;20487;-88
2023/09/13 11:53:16;;;;;;;4.10;1.40;;;;;;;;;;5075619;28;20030;-88
2023/09/13 11:55:45;;;;;;;4.00;1.20;;;;;;;;;;5065425;28;20051;-88
2023/09/13 11:58:17;;;;;;;2.35;1.40;;;;;;;;;;5061946;28;20024;-88
2023/09/13 12:00:42;;;;;;;;;;;;;;;;;;5066592;28;20341;-89
2023/09/13 12:03:07;;;;;;;2.90;1.40;;;;;;;;;;5069216;28;19916;-88
2023/09/13 12:05:33;;;;;;;2.63;1.45;;;;;;;;;;5061385;28;20116;-88
2023/09/13 12:07:58;;;;;;;1.77;1.30;;;;;;;;;;5070735;28;20127;-88
2023/09/13 12:10:35;;;;;;;2.20;1.02;;;;;;;;;;5064232;28;20016;-88
2023/09/13 12:13:00;;;;;;;1.40;0.90;;;;;;;;;;5076315;28;20091;-88
2023/09/13 12:15:26;;;;;;;1.63;1.42;;;;;;;;;;5069943;28;20074;-88
2023/09/13 12:17:51;;;;;;;1.75;0.68;;;;;;;;;;5070169;28;20036;-88
2023/09/13 12:20:17;;;;;;;1.48;0.60;;;;;;;;;;5073128;28;20035;-88
2023/09/13 12:22:42;;;;;;;1.08;0.60;;;;;;;;;;5062666;28;20522;-89
2023/09/13 12:25:11;;;;;;;1.80;0.60;;;;;;;;;;5059059;28;20476;-88
2023/09/13 12:27:37;;;;;;;3.92;1.30;;;;;;;;;;5065122;28;20427;-89
2023/09/13 12:30:16;;;;;;;1.80;0.68;;;;;;;;;;5068411;28;20084;-89
2023/09/13 12:32:43;;;;;;;1.38;0.70;;;;;;;;;;5066804;28;20033;-88
2023/09/13 12:35:09;;;;;;;1.00;0.70;;;;;;;;;;5072566;28;20088;-89
2023/09/13 12:37:38;;;;;;;2.47;0.90;;;;;;;;;;5103458;28;20035;-89
2023/09/13 12:40:14;;;;;;;4.07;0.88;;;;;;;;;;5071790;28;20371;-87
2023/09/13 12:42:40;;;;;;;2.45;0.70;;;;;;;;;;5079764;28;20021;-88
2023/09/13 12:45:05;;;;;;;1.27;0.57;;;;;;;;;;5066722;28;20451;-90
2023/09/13 12:47:35;;;;;;;1.45;0.40;;;;;;;;;;5072784;28;20078;-88
2023/09/13 12:50:02;;;;;;;2.13;0.70;;;;;;;;;;5070113;28;20441;-89
2023/09/13 12:52:27;;;;;;;0.52;0.50;;;;;;;;;;5070725;28;20032;-88
2023/09/13 12:54:52;;;;;;;0.93;0.40;;;;;;;;;;5074411;28;20115;-89
2023/09/13 12:57:21;;;;;;;2.63;0.80;;;;;;;;;;5072971;28;20485;-89
2023/09/13 12:59:46;;;;;;;1.13;0.47;;;;;;;;;;5068758;28;20020;-90
2023/09/13 13:02:21;;;;;;;1.25;0.35;;;;;;;;;;5069213;28;20448;-91
2023/09/13 13:04:46;;;;;;;3.53;0.40;;;;;;;;;;5064362;28;21128;-91
2023/09/13 13:07:22;;;;;;;1.25;0.40;;;;;;;;;;5073166;28;20017;-90
2023/09/13 13:09:51;;;;;;;1.13;0.40;;;;;;;;;;5075427;28;20017;-90
2023/09/13 13:12:16;;;;;;;2.78;0.77;;;;;;;;;;5079936;28;20343;-90
2023/09/13 13:14:48;;;;;;;1.35;0.60;;;;;;;;;;5068600;28;20024;-90
2023/09/13 13:17:13;;;;;;;0.55;0.43;;;;;;;;;;5066033;28;20051;-90
2023/09/13 13:19:39;;;;;;;1.55;0.75;;;;;;;;;;5067649;28;20033;-89
2023/09/13 13:22:11;;;;;;;3.83;0.50;;;;;;;;;;5063169;28;20040;-87
2023/09/13 13:24:37;;;;;;;1.63;0.60;;;;;;;;;;5066519;28;20383;-86
2023/09/13 13:27:03;;;;;;;1.95;0.50;;;;;;;;;;5075140;28;20099;-87
2023/09/13 13:29:28;;;;;;;0.77;0.50;;;;;;;;;;5076651;28;20048;-86
2023/09/13 13:31:53;;;;;;;1.05;0.55;;;;;;;;;;5063899;28;20017;-87
2023/09/13 13:34:18;;;;;;;3.78;0.52;;;;;;;;;;5064968;28;20025;-87
2023/09/13 13:36:44;;;;;;;2.53;0.40;;;;;;;;;;5071796;28;20115;-87
2023/09/13 13:39:14;;;;;;;3.15;0.50;;;;;;;;;;5060510;28;20135;-87
2023/09/13 13:41:40;;;;;;;2.55;0.65;;;;;;;;;;5070142;28;20090;-88
2023/09/13 13:44:05;;;;;;;0.68;0.30;;;;;;;;;;5063023;28;20028;-88
2023/09/13 13:46:31;;;;;;;1.10;0.60;;;;;;;;;;5071853;28;20020;-88
2023/09/13 13:48:56;;;;;;;2.22;0.70;;;;;;;;;;5060717;28;20013;-90
2023/09/13 13:51:21;;;;;;;3.70;0.63;;;;;;;;;;5073302;28;20124;-88
2023/09/13 13:53:47;;;;;;;1.15;0.50;;;;;;;;;;5065856;28;20028;-89
2023/09/13 13:56:12;;;;;;;4.65;0.60;;;;;;;;;;5075825;28;20171;-88
2023/09/13 13:58:39;;;;;;;2.83;0.50;;;;;;;;;;5064909;28;20017;-88
2023/09/13 14:01:04;;;;;;;5.88;0.80;;;;;;;;;;5062299;28;20032;-89
2023/09/13 14:03:29;;;;;;;4.80;0.70;;;;;;;;;;5073949;28;20460;-88
2023/09/13 14:05:57;;;;;;;1.88;0.80;;;;;;;;;;5074970;28;20025;-95
2023/09/13 14:08:26;;;;;;;2.83;0.50;;;;;;;;;;5061287;28;20056;-95
2023/09/13 14:10:55;;;;;;;2.85;0.70;;;;;;;;;;5067427;28;20487;-89
2023/09/13 14:13:21;;;;;;;1.40;0.75;;;;;;;;;;5092584;28;20025;-90
2023/09/13 14:15:53;;;;;;;2.15;0.60;;;;;;;;;;5073826;28;20329;-89
2023/09/13 14:18:19;;;;;;;2.45;0.80;;;;;;;;;;5064983;28;20423;-88
2023/09/13 14:20:45;;;;;;;4.00;0.63;;;;;;;;;;5075035;28;20107;-90
2023/09/13 14:23:11;;;;;;;3.38;0.70;;;;;;;;;;5061185;28;20428;-89